createdAt,value
2018-05-03T00:00:24.322Z,10.31
2018-05-03T00:06:19.299Z,14.44
2018-05-03T00:12:14.299Z,11.61
2018-05-03T00:18:09.316Z,12.02
2018-05-03T00:24:04.298Z,11.33
2018-05-03T00:29:59.286Z,10.64
2018-05-03T00:35:54.342Z,10.48
2018-05-03T00:41:49.308Z,14.43
2018-05-03T00:47:44.317Z,8.9
2018-05-03T00:53:39.343Z,13.47
2018-05-03T00:59:34.320Z,11.24
2018-05-03T01:05:29.337Z,10.83
2018-05-03T01:11:24.339Z,11.93
2018-05-03T01:17:19.341Z,12.39
2018-05-03T01:23:14.364Z,9.78
2018-05-03T01:29:09.336Z,14.11
2018-05-03T01:35:04.402Z,10.38
2018-05-03T01:40:59.376Z,9.35
2018-05-03T01:46:54.397Z,10.24
2018-05-03T01:52:49.372Z,12.49
2018-05-03T01:58:44.371Z,10.63
2018-05-03T02:04:39.375Z,10.88
2018-05-03T02:10:34.399Z,13.92
2018-05-03T02:16:29.404Z,8.53
2018-05-03T02:22:24.450Z,13.94
2018-05-03T02:28:19.398Z,8.29
2018-05-03T02:34:14.425Z,10.78
2018-05-03T02:40:09.474Z,16.89
2018-05-03T02:46:04.421Z,9
2018-05-03T02:51:59.414Z,13.67
2018-05-03T02:57:54.423Z,14.82
2018-05-03T03:03:49.438Z,11.07
2018-05-03T03:09:44.518Z,10.14
2018-05-03T03:15:39.424Z,11.29
2018-05-03T03:21:34.471Z,8.38
2018-05-03T03:27:29.456Z,8.32
2018-05-03T03:33:24.459Z,11.5
2018-05-03T03:39:19.497Z,12.44
2018-05-03T03:45:14.460Z,11.3
2018-05-03T03:51:09.503Z,9.02
2018-05-03T03:57:04.509Z,8.12
2018-05-03T04:02:59.484Z,12.04
2018-05-03T04:08:54.519Z,9.69
2018-05-03T04:14:49.504Z,12.81
2018-05-03T04:20:44.479Z,12.03
2018-05-03T04:26:39.510Z,11.32
2018-05-03T04:32:34.507Z,9.83
2018-05-03T04:38:29.525Z,17.2
2018-05-03T04:44:24.561Z,5.68
2018-05-03T04:50:19.537Z,13.16
2018-05-03T04:56:14.528Z,10.14
2018-05-03T05:02:09.524Z,10.63
2018-05-03T05:08:04.524Z,8.02
2018-05-03T05:13:59.562Z,7.11
2018-05-03T05:19:54.578Z,7.93
2018-05-03T05:25:49.544Z,7.48
2018-05-03T05:31:44.563Z,10.89
2018-05-03T05:37:39.570Z,13.81
2018-05-03T05:43:34.544Z,10.17
2018-05-03T05:49:29.615Z,13.99
2018-05-03T05:55:24.573Z,10.1
2018-05-03T06:01:19.596Z,14.56
2018-05-03T06:07:14.648Z,9.65
2018-05-03T06:13:09.564Z,10.25
2018-05-03T06:19:04.638Z,11.97
2018-05-03T06:24:59.605Z,16.2
2018-05-03T06:30:54.650Z,12.53
2018-05-03T06:36:49.588Z,8.23
2018-05-03T06:42:44.639Z,11.57
2018-05-03T06:48:39.648Z,10.62
2018-05-03T06:54:34.616Z,7.75
2018-05-03T07:00:29.614Z,6.82
2018-05-03T07:06:24.632Z,6.25
2018-05-03T07:12:19.637Z,7.32
2018-05-03T07:18:14.717Z,10.55
2018-05-03T07:24:09.641Z,6.18
2018-05-03T07:30:04.672Z,11.44
2018-05-03T07:35:59.737Z,9.53
2018-05-03T07:41:54.699Z,9.09
2018-05-03T07:47:49.652Z,10.23
2018-05-03T07:53:44.662Z,10.52
2018-05-03T07:59:39.674Z,14.05
2018-05-03T08:05:34.739Z,12.82
2018-05-03T08:11:29.707Z,9.49
2018-05-03T08:17:24.749Z,13.74
2018-05-03T08:23:19.714Z,11.03
2018-05-03T08:29:14.704Z,13.77
2018-05-03T08:35:09.726Z,13.47
2018-05-03T08:41:04.714Z,10.76
2018-05-03T08:46:59.745Z,12.5
2018-05-03T08:52:54.722Z,9.95
2018-05-03T08:58:49.724Z,9.15
2018-05-03T09:04:44.755Z,10.99
2018-05-03T09:10:39.762Z,17.15
2018-05-03T09:16:34.751Z,14.27
2018-05-03T09:22:29.881Z,8.38
2018-05-03T09:28:24.777Z,13.69
2018-05-03T09:34:19.787Z,8.16
2018-05-03T09:40:14.750Z,8.54
2018-05-03T09:46:09.899Z,8.77
2018-05-03T09:52:04.792Z,11.46
2018-05-03T09:57:59.758Z,6.9
2018-05-03T10:03:54.808Z,7.03
2018-05-03T10:09:49.821Z,10.05
2018-05-03T10:15:44.827Z,10.1
2018-05-03T10:21:39.814Z,7.99
2018-05-03T10:27:34.805Z,7.65
2018-05-03T10:33:29.794Z,8.1
2018-05-03T10:39:24.838Z,6.27
2018-05-03T10:45:19.914Z,6.26
2018-05-03T10:51:14.850Z,10.85
2018-05-03T10:57:09.829Z,10.52
2018-05-03T11:03:04.851Z,4.4
2018-05-03T11:08:59.876Z,7.16
2018-05-03T11:14:54.861Z,9.13
2018-05-03T11:20:49.859Z,6.64
2018-05-03T11:26:44.949Z,5.76
2018-05-03T11:32:39.941Z,9.3
2018-05-03T11:38:34.905Z,6.9
2018-05-03T11:44:29.873Z,9.38
2018-05-03T11:50:24.891Z,7.01
2018-05-03T11:56:19.869Z,9.01
2018-05-03T12:02:14.886Z,8.61
2018-05-03T12:08:09.897Z,7.26
2018-05-03T12:14:04.951Z,11.49
2018-05-03T12:19:59.966Z,8.06
2018-05-03T12:25:54.955Z,7.87
2018-05-03T12:31:49.932Z,12.1
2018-05-03T12:37:44.931Z,10.03
2018-05-03T12:43:40.029Z,11.37
2018-05-03T12:49:34.953Z,12.03
2018-05-03T12:55:29.999Z,12.05
2018-05-03T13:01:24.963Z,8.93
2018-05-03T13:07:19.953Z,13.11
2018-05-03T13:13:14.941Z,13.78
2018-05-03T13:19:10.044Z,10.19
2018-05-03T13:25:05.017Z,12.31
2018-05-03T13:31:00.014Z,12.89
2018-05-03T13:36:54.991Z,9.8
2018-05-03T13:42:49.981Z,15.25
2018-05-03T13:48:45.003Z,11.88
2018-05-03T13:54:40.011Z,13.75
2018-05-03T14:00:35.031Z,15.05
2018-05-03T14:06:30.001Z,13.09
2018-05-03T14:12:25.105Z,14.63
2018-05-03T14:18:20.036Z,11.55
2018-05-03T14:24:15.026Z,16.05
2018-05-03T14:30:10.023Z,17.21
2018-05-03T14:36:05.041Z,15.75
2018-05-03T14:42:00.054Z,14.45
2018-05-03T14:47:55.039Z,8.54
2018-05-03T14:53:50.029Z,3.47
2018-05-03T14:59:45.100Z,8.05
2018-05-03T15:05:40.070Z,9.4
2018-05-03T15:11:35.093Z,6.13
2018-05-03T15:17:30.111Z,5.1
2018-05-03T15:23:25.057Z,5.87
2018-05-03T15:29:20.091Z,3.37
2018-05-03T15:35:15.084Z,3.43
2018-05-03T15:41:10.100Z,5.7
2018-05-03T15:47:05.132Z,2.66
2018-05-03T15:53:00.087Z,3.67
2018-05-03T15:58:55.102Z,3.85
2018-05-03T16:04:50.127Z,3.46
2018-05-03T16:10:45.162Z,4.9
2018-05-03T16:16:40.126Z,7.08
2018-05-03T16:22:35.121Z,5.3
2018-05-03T16:28:30.138Z,7.58
2018-05-03T16:34:25.203Z,5.16
2018-05-03T16:40:20.165Z,3.28
2018-05-03T16:46:15.131Z,3.47
2018-05-03T16:52:10.182Z,3.74
2018-05-03T16:58:05.158Z,3.39
2018-05-03T17:04:00.200Z,3.58
2018-05-03T17:09:55.233Z,6.05
2018-05-03T17:15:50.210Z,5.57
2018-05-03T17:21:45.174Z,4.43
2018-05-03T17:27:40.199Z,4.36
2018-05-03T17:33:35.201Z,3.8
2018-05-03T17:39:30.266Z,4.4
2018-05-03T17:45:25.236Z,4.8
2018-05-03T17:51:20.281Z,6.45
2018-05-03T17:57:15.233Z,6.26
2018-05-03T18:03:10.205Z,5.71
2018-05-03T18:09:05.208Z,5.15
2018-05-03T18:15:00.263Z,7.76
2018-05-03T18:20:55.341Z,6.12
2018-05-03T18:26:50.229Z,4.73
2018-05-03T18:32:45.277Z,4.33
2018-05-03T18:38:40.253Z,7.75
2018-05-03T18:44:35.250Z,5.65
2018-05-03T18:50:30.249Z,6.14
2018-05-03T18:56:25.288Z,5.97
2018-05-03T19:02:20.312Z,5.89
2018-05-03T19:08:15.304Z,11.3
2018-05-03T19:14:10.295Z,9.62
2018-05-03T19:20:05.333Z,7.03
2018-05-03T19:26:00.271Z,7
2018-05-03T19:31:55.295Z,6.87
2018-05-03T19:37:50.303Z,8.32
2018-05-03T19:43:45.301Z,9.5
2018-05-03T19:49:40.319Z,14.04
2018-05-03T19:55:35.333Z,13.7
2018-05-03T20:01:30.321Z,10.4
2018-05-03T20:07:25.345Z,9.11
2018-05-03T20:13:20.322Z,10.77
2018-05-03T20:19:15.353Z,14.37
2018-05-03T20:25:10.364Z,16.76
2018-05-03T20:31:05.353Z,23.45
2018-05-03T20:37:00.407Z,14.81
2018-05-03T20:42:55.390Z,13.96
2018-05-03T20:48:50.348Z,15.37
2018-05-03T20:54:45.378Z,20.47
2018-05-03T21:00:40.373Z,15.56
2018-05-03T21:06:35.388Z,22.63
2018-05-03T21:12:30.384Z,19.38
2018-05-03T21:18:25.406Z,13.24
2018-05-03T21:24:20.476Z,18.18
2018-05-03T21:30:15.442Z,14.24
2018-05-03T21:36:10.402Z,12.77
2018-05-03T21:42:05.402Z,11.28
2018-05-03T21:48:00.392Z,13.07
2018-05-03T21:53:55.408Z,14.53
2018-05-03T21:59:50.417Z,14.27
2018-05-03T22:05:45.478Z,13.43
2018-05-03T22:11:40.503Z,11.54
2018-05-03T22:17:35.447Z,9.84
2018-05-03T22:23:30.445Z,7.94
2018-05-03T22:29:25.459Z,4.81
2018-05-03T22:35:20.468Z,8.34
2018-05-03T22:41:15.470Z,5.89
2018-05-03T22:47:10.472Z,8.04
2018-05-03T22:53:05.500Z,7.32
2018-05-03T22:59:00.560Z,6.79
2018-05-03T23:04:55.506Z,7.23
2018-05-03T23:10:50.507Z,7.03
2018-05-03T23:16:45.475Z,5.17
2018-05-03T23:22:40.529Z,5.76
2018-05-03T23:28:35.482Z,2.57
2018-05-03T23:34:30.534Z,4.49
2018-05-03T23:40:25.565Z,6.5
2018-05-03T23:46:20.528Z,3.15
2018-05-03T23:52:15.559Z,3.14
2018-05-03T23:58:10.501Z,3.83
